<?xml version="1.0" encoding="utf-8"?>
<gpx xmlns:xsi="http://www.w3.org/2001/XMLSchema-instance" xmlns:xsd="http://www.w3.org/2001/XMLSchema" version="1.1" creator="Shapelink.com" xmlns="http://www.topografix.com/GPX/1/1" xmlns:gpxtpx="http://www.garmin.com/xmlschemas/TrackPointExtension/v1">
  <metadata>
    <name>Cykling 13.33 km, 2013-07-18</name>
    <desc></desc>
    <author><name>Kim Kronberg</name></author> 
    <time>2013-07-18T16:39:14Z</time>
  </metadata>
  <trk>
    <name>Cykling 13.33 km, 2013-07-18</name>
    <trkseg>
      <trkpt lat="60.11660059914" lon="21.525408541784">
        <ele>10.2</ele>
        <time>2013-07-18T16:39:14Z</time>
      </trkpt>
      <trkpt lat="60.116647956893" lon="21.52538289316">
        <ele>10.2</ele>
        <time>2013-07-18T16:39:19Z</time>
      </trkpt>
      <trkpt lat="60.116776954383" lon="21.525291195139">
        <ele>10.6</ele>
        <time>2013-07-18T16:39:23Z</time>
      </trkpt>
      <trkpt lat="60.116856750101" lon="21.525230845436">
        <ele>10.8</ele>
        <time>2013-07-18T16:39:26Z</time>
      </trkpt>
      <trkpt lat="60.116940150037" lon="21.52535514906">
        <ele>11.2</ele>
        <time>2013-07-18T16:39:30Z</time>
      </trkpt>
      <trkpt lat="60.117064956576" lon="21.525804251432">
        <ele>11.8</ele>
        <time>2013-07-18T16:39:36Z</time>
      </trkpt>
      <trkpt lat="60.117282886058" lon="21.526589132845">
        <ele>12.2</ele>
        <time>2013-07-18T16:39:45Z</time>
      </trkpt>
      <trkpt lat="60.117464270443" lon="21.527431765571">
        <ele>11</ele>
        <time>2013-07-18T16:39:53Z</time>
      </trkpt>
      <trkpt lat="60.117578096688" lon="21.528332065791">
        <ele>10.8</ele>
        <time>2013-07-18T16:40:01Z</time>
      </trkpt>
      <trkpt lat="60.117611037567" lon="21.529088281095">
        <ele>9</ele>
        <time>2013-07-18T16:40:08Z</time>
      </trkpt>
      <trkpt lat="60.117609696463" lon="21.529534952715">
        <ele>8.2</ele>
        <time>2013-07-18T16:40:12Z</time>
      </trkpt>
      <trkpt lat="60.117594944313" lon="21.530317571014">
        <ele>6.6</ele>
        <time>2013-07-18T16:40:19Z</time>
      </trkpt>
      <trkpt lat="60.117580359802" lon="21.53110479936">
        <ele>5.8</ele>
        <time>2013-07-18T16:40:26Z</time>
      </trkpt>
      <trkpt lat="60.117579270154" lon="21.5315964818">
        <ele>6.4</ele>
        <time>2013-07-18T16:40:31Z</time>
      </trkpt>
      <trkpt lat="60.117590082809" lon="21.532341968268">
        <ele>9</ele>
        <time>2013-07-18T16:40:39Z</time>
      </trkpt>
      <trkpt lat="60.117592345923" lon="21.532426457852">
        <ele>9.4</ele>
        <time>2013-07-18T16:40:40Z</time>
      </trkpt>
      <trkpt lat="60.117639033124" lon="21.533063398674">
        <ele>11.4</ele>
        <time>2013-07-18T16:40:48Z</time>
      </trkpt>
      <trkpt lat="60.117715895176" lon="21.53379438445">
        <ele>13.6</ele>
        <time>2013-07-18T16:40:57Z</time>
      </trkpt>
      <trkpt lat="60.117785381153" lon="21.534359995276">
        <ele>14.8</ele>
        <time>2013-07-18T16:41:04Z</time>
      </trkpt>
      <trkpt lat="60.117828883231" lon="21.534703653306">
        <ele>15.4</ele>
        <time>2013-07-18T16:41:08Z</time>
      </trkpt>
      <trkpt lat="60.117905493826" lon="21.535398261622">
        <ele>15.8</ele>
        <time>2013-07-18T16:41:15Z</time>
      </trkpt>
      <trkpt lat="60.117932651192" lon="21.536010894924">
        <ele>15.6</ele>
        <time>2013-07-18T16:41:20Z</time>
      </trkpt>
      <trkpt lat="60.117883533239" lon="21.536824777722">
        <ele>14.8</ele>
        <time>2013-07-18T16:41:27Z</time>
      </trkpt>
      <trkpt lat="60.11776057072" lon="21.537444368005">
        <ele>14.2</ele>
        <time>2013-07-18T16:41:33Z</time>
      </trkpt>
      <trkpt lat="60.117615396157" lon="21.538011655211">
        <ele>14.6</ele>
        <time>2013-07-18T16:41:40Z</time>
      </trkpt>
      <trkpt lat="60.117538282648" lon="21.538380878046">
        <ele>15.2</ele>
        <time>2013-07-18T16:41:46Z</time>
      </trkpt>
      <trkpt lat="60.117470389232" lon="21.538735684007">
        <ele>15.2</ele>
        <time>2013-07-18T16:41:52Z</time>
      </trkpt>
      <trkpt lat="60.11739696376" lon="21.539176655933">
        <ele>15.4</ele>
        <time>2013-07-18T16:41:59Z</time>
      </trkpt>
      <trkpt lat="60.11735547334" lon="21.53951109387">
        <ele>15.6</ele>
        <time>2013-07-18T16:42:04Z</time>
      </trkpt>
      <trkpt lat="60.117305433378" lon="21.540079554543">
        <ele>16.2</ele>
        <time>2013-07-18T16:42:11Z</time>
      </trkpt>
      <trkpt lat="60.117281377316" lon="21.540678776801">
        <ele>16.6</ele>
        <time>2013-07-18T16:42:18Z</time>
      </trkpt>
      <trkpt lat="60.117281042039" lon="21.541257547215">
        <ele>16.4</ele>
        <time>2013-07-18T16:42:24Z</time>
      </trkpt>
      <trkpt lat="60.117302080616" lon="21.541996747255">
        <ele>16.2</ele>
        <time>2013-07-18T16:42:31Z</time>
      </trkpt>
      <trkpt lat="60.117321861908" lon="21.542793950066">
        <ele>16.2</ele>
        <time>2013-07-18T16:42:38Z</time>
      </trkpt>
      <trkpt lat="60.117341475561" lon="21.543615292758">
        <ele>16</ele>
        <time>2013-07-18T16:42:45Z</time>
      </trkpt>
      <trkpt lat="60.117365950719" lon="21.544467564672">
        <ele>14.6</ele>
        <time>2013-07-18T16:42:52Z</time>
      </trkpt>
      <trkpt lat="60.117341643199" lon="21.545273568481">
        <ele>13.2</ele>
        <time>2013-07-18T16:42:58Z</time>
      </trkpt>
      <trkpt lat="60.117266876623" lon="21.546105137095">
        <ele>13.2</ele>
        <time>2013-07-18T16:43:05Z</time>
      </trkpt>
      <trkpt lat="60.117156738415" lon="21.546855149791">
        <ele>14</ele>
        <time>2013-07-18T16:43:12Z</time>
      </trkpt>
      <trkpt lat="60.117045342922" lon="21.547565348446">
        <ele>14</ele>
        <time>2013-07-18T16:43:19Z</time>
      </trkpt>
      <trkpt lat="60.116937635466" lon="21.548187788576">
        <ele>13.6</ele>
        <time>2013-07-18T16:43:25Z</time>
      </trkpt>
      <trkpt lat="60.116809476167" lon="21.548919193447">
        <ele>12.2</ele>
        <time>2013-07-18T16:43:32Z</time>
      </trkpt>
      <trkpt lat="60.116653991863" lon="21.549854865298">
        <ele>12.6</ele>
        <time>2013-07-18T16:43:41Z</time>
      </trkpt>
      <trkpt lat="60.116550475359" lon="21.550484765321">
        <ele>14.4</ele>
        <time>2013-07-18T16:43:47Z</time>
      </trkpt>
      <trkpt lat="60.116428434849" lon="21.551176272333">
        <ele>15.8</ele>
        <time>2013-07-18T16:43:54Z</time>
      </trkpt>
      <trkpt lat="60.116316955537" lon="21.551856799051">
        <ele>16.6</ele>
        <time>2013-07-18T16:44:01Z</time>
      </trkpt>
      <trkpt lat="60.116240596399" lon="21.552402880043">
        <ele>16.8</ele>
        <time>2013-07-18T16:44:07Z</time>
      </trkpt>
      <trkpt lat="60.11615216732" lon="21.553161693737">
        <ele>17.6</ele>
        <time>2013-07-18T16:44:15Z</time>
      </trkpt>
      <trkpt lat="60.116093661636" lon="21.553764436394">
        <ele>18.2</ele>
        <time>2013-07-18T16:44:21Z</time>
      </trkpt>
      <trkpt lat="60.116045381874" lon="21.554492153227">
        <ele>18.8</ele>
        <time>2013-07-18T16:44:28Z</time>
      </trkpt>
      <trkpt lat="60.116004981101" lon="21.555371750146">
        <ele>18.6</ele>
        <time>2013-07-18T16:44:36Z</time>
      </trkpt>
      <trkpt lat="60.115994755179" lon="21.555931661278">
        <ele>18</ele>
        <time>2013-07-18T16:44:41Z</time>
      </trkpt>
      <trkpt lat="60.115959886461" lon="21.556852748618">
        <ele>17</ele>
        <time>2013-07-18T16:44:49Z</time>
      </trkpt>
      <trkpt lat="60.11592107825" lon="21.55762815848">
        <ele>17.2</ele>
        <time>2013-07-18T16:44:56Z</time>
      </trkpt>
      <trkpt lat="60.11586223729" lon="21.558544468135">
        <ele>17.6</ele>
        <time>2013-07-18T16:45:04Z</time>
      </trkpt>
      <trkpt lat="60.115804485977" lon="21.559450384229">
        <ele>16.6</ele>
        <time>2013-07-18T16:45:12Z</time>
      </trkpt>
      <trkpt lat="60.115759391338" lon="21.559878364205">
        <ele>15.8</ele>
        <time>2013-07-18T16:45:16Z</time>
      </trkpt>
      <trkpt lat="60.11566744186" lon="21.560500049964">
        <ele>15</ele>
        <time>2013-07-18T16:45:22Z</time>
      </trkpt>
      <trkpt lat="60.115615138784" lon="21.560814958066">
        <ele>14.4</ele>
        <time>2013-07-18T16:45:25Z</time>
      </trkpt>
      <trkpt lat="60.115486057475" lon="21.561554241925">
        <ele>15</ele>
        <time>2013-07-18T16:45:32Z</time>
      </trkpt>
      <trkpt lat="60.115361083299" lon="21.562339961529">
        <ele>14.8</ele>
        <time>2013-07-18T16:45:39Z</time>
      </trkpt>
      <trkpt lat="60.115228397772" lon="21.563153676689">
        <ele>13.6</ele>
        <time>2013-07-18T16:45:46Z</time>
      </trkpt>
      <trkpt lat="60.115166371688" lon="21.563760777935">
        <ele>13.2</ele>
        <time>2013-07-18T16:45:52Z</time>
      </trkpt>
      <trkpt lat="60.115139968693" lon="21.564307948574">
        <ele>13.4</ele>
        <time>2013-07-18T16:45:58Z</time>
      </trkpt>
      <trkpt lat="60.115126557648" lon="21.565145971254">
        <ele>15.2</ele>
        <time>2013-07-18T16:46:08Z</time>
      </trkpt>
      <trkpt lat="60.115124965087" lon="21.565630361438">
        <ele>16.2</ele>
        <time>2013-07-18T16:46:14Z</time>
      </trkpt>
      <trkpt lat="60.11513334699" lon="21.56630015932">
        <ele>16.8</ele>
        <time>2013-07-18T16:46:22Z</time>
      </trkpt>
      <trkpt lat="60.115132341161" lon="21.567068779841">
        <ele>17.8</ele>
        <time>2013-07-18T16:46:31Z</time>
      </trkpt>
      <trkpt lat="60.115136951208" lon="21.567968577147">
        <ele>18.2</ele>
        <time>2013-07-18T16:46:40Z</time>
      </trkpt>
      <trkpt lat="60.115138459951" lon="21.568767037243">
        <ele>16.6</ele>
        <time>2013-07-18T16:46:47Z</time>
      </trkpt>
      <trkpt lat="60.115142399445" lon="21.569914855063">
        <ele>14</ele>
        <time>2013-07-18T16:46:56Z</time>
      </trkpt>
      <trkpt lat="60.115150362253" lon="21.571171469986">
        <ele>14</ele>
        <time>2013-07-18T16:47:05Z</time>
      </trkpt>
      <trkpt lat="60.115152793005" lon="21.572039751336">
        <ele>14.2</ele>
        <time>2013-07-18T16:47:11Z</time>
      </trkpt>
      <trkpt lat="60.115178190172" lon="21.573193771765">
        <ele>16</ele>
        <time>2013-07-18T16:47:19Z</time>
      </trkpt>
      <trkpt lat="60.115219261497" lon="21.574095580727">
        <ele>16.4</ele>
        <time>2013-07-18T16:47:26Z</time>
      </trkpt>
      <trkpt lat="60.115290172398" lon="21.575122782961">
        <ele>13.8</ele>
        <time>2013-07-18T16:47:35Z</time>
      </trkpt>
      <trkpt lat="60.115414056927" lon="21.576184183359">
        <ele>13.2</ele>
        <time>2013-07-18T16:47:45Z</time>
      </trkpt>
      <trkpt lat="60.115578174591" lon="21.577343065292">
        <ele>14</ele>
        <time>2013-07-18T16:47:56Z</time>
      </trkpt>
      <trkpt lat="60.115769365802" lon="21.578361550346">
        <ele>14</ele>
        <time>2013-07-18T16:48:06Z</time>
      </trkpt>
      <trkpt lat="60.115810437128" lon="21.578560788184">
        <ele>14.2</ele>
        <time>2013-07-18T16:48:08Z</time>
      </trkpt>
      <trkpt lat="60.11605007574" lon="21.57941213809">
        <ele>14.4</ele>
        <time>2013-07-18T16:48:17Z</time>
      </trkpt>
      <trkpt lat="60.116298180073" lon="21.580140357837">
        <ele>13.4</ele>
        <time>2013-07-18T16:48:25Z</time>
      </trkpt>
      <trkpt lat="60.116580482572" lon="21.580844689161">
        <ele>13.6</ele>
        <time>2013-07-18T16:48:33Z</time>
      </trkpt>
      <trkpt lat="60.116882734001" lon="21.581534268335">
        <ele>15.8</ele>
        <time>2013-07-18T16:48:42Z</time>
      </trkpt>
      <trkpt lat="60.117062358186" lon="21.581932157278">
        <ele>17</ele>
        <time>2013-07-18T16:48:48Z</time>
      </trkpt>
      <trkpt lat="60.117113655433" lon="21.582195935771">
        <ele>18</ele>
        <time>2013-07-18T16:48:52Z</time>
      </trkpt>
      <trkpt lat="60.117096891627" lon="21.582256285474">
        <ele>18.4</ele>
        <time>2013-07-18T16:48:53Z</time>
      </trkpt>
      <trkpt lat="60.116899581626" lon="21.582917785272">
        <ele>20.2</ele>
        <time>2013-07-18T16:49:03Z</time>
      </trkpt>
      <trkpt lat="60.11676597409" lon="21.583574172109">
        <ele>20.6</ele>
        <time>2013-07-18T16:49:11Z</time>
      </trkpt>
      <trkpt lat="60.116629349068" lon="21.584106758237">
        <ele>20</ele>
        <time>2013-07-18T16:49:18Z</time>
      </trkpt>
      <trkpt lat="60.116415861994" lon="21.584645295516">
        <ele>20.4</ele>
        <time>2013-07-18T16:49:27Z</time>
      </trkpt>
      <trkpt lat="60.116195250303" lon="21.585087189451">
        <ele>21.6</ele>
        <time>2013-07-18T16:49:35Z</time>
      </trkpt>
      <trkpt lat="60.116008585319" lon="21.585478456691">
        <ele>21.8</ele>
        <time>2013-07-18T16:49:40Z</time>
      </trkpt>
      <trkpt lat="60.115885958076" lon="21.585874836892">
        <ele>21.6</ele>
        <time>2013-07-18T16:49:44Z</time>
      </trkpt>
      <trkpt lat="60.115845473483" lon="21.586104836315">
        <ele>21.2</ele>
        <time>2013-07-18T16:49:46Z</time>
      </trkpt>
      <trkpt lat="60.115794092417" lon="21.587033886462">
        <ele>20</ele>
        <time>2013-07-18T16:49:54Z</time>
      </trkpt>
      <trkpt lat="60.115785542876" lon="21.587139163166">
        <ele>20</ele>
        <time>2013-07-18T16:49:55Z</time>
      </trkpt>
      <trkpt lat="60.11576953344" lon="21.587878363207">
        <ele>21.2</ele>
        <time>2013-07-18T16:50:03Z</time>
      </trkpt>
      <trkpt lat="60.115753775463" lon="21.588486386463">
        <ele>23</ele>
        <time>2013-07-18T16:50:09Z</time>
      </trkpt>
      <trkpt lat="60.115763666108" lon="21.588802887127">
        <ele>23.4</ele>
        <time>2013-07-18T16:50:12Z</time>
      </trkpt>
      <trkpt lat="60.115732233971" lon="21.589599754661">
        <ele>22.8</ele>
        <time>2013-07-18T16:50:19Z</time>
      </trkpt>
      <trkpt lat="60.115572642535" lon="21.590229654685">
        <ele>21.8</ele>
        <time>2013-07-18T16:50:25Z</time>
      </trkpt>
      <trkpt lat="60.115389749408" lon="21.590790655464">
        <ele>20.8</ele>
        <time>2013-07-18T16:50:31Z</time>
      </trkpt>
      <trkpt lat="60.115095041692" lon="21.591528765857">
        <ele>18.8</ele>
        <time>2013-07-18T16:50:39Z</time>
      </trkpt>
      <trkpt lat="60.114849954844" lon="21.592147266492">
        <ele>17.4</ele>
        <time>2013-07-18T16:50:46Z</time>
      </trkpt>
      <trkpt lat="60.114676365629" lon="21.59264087677">
        <ele>16.6</ele>
        <time>2013-07-18T16:50:52Z</time>
      </trkpt>
      <trkpt lat="60.114542758092" lon="21.593276644126">
        <ele>16.4</ele>
        <time>2013-07-18T16:50:58Z</time>
      </trkpt>
      <trkpt lat="60.114461034536" lon="21.593966977671">
        <ele>17.6</ele>
        <time>2013-07-18T16:51:04Z</time>
      </trkpt>
      <trkpt lat="60.114452652633" lon="21.594489086419">
        <ele>18.8</ele>
        <time>2013-07-18T16:51:09Z</time>
      </trkpt>
      <trkpt lat="60.114458352327" lon="21.594772646204">
        <ele>19.8</ele>
        <time>2013-07-18T16:51:12Z</time>
      </trkpt>
      <trkpt lat="60.114504285157" lon="21.59555895254">
        <ele>21.8</ele>
        <time>2013-07-18T16:51:21Z</time>
      </trkpt>
      <trkpt lat="60.114508559927" lon="21.595646878704">
        <ele>22</ele>
        <time>2013-07-18T16:51:22Z</time>
      </trkpt>
      <trkpt lat="60.114524485543" lon="21.595810661092">
        <ele>22.4</ele>
        <time>2013-07-18T16:51:24Z</time>
      </trkpt>
      <trkpt lat="60.114471260458" lon="21.596389263868">
        <ele>22.2</ele>
        <time>2013-07-18T16:51:30Z</time>
      </trkpt>
      <trkpt lat="60.114295743406" lon="21.59697775729">
        <ele>21.4</ele>
        <time>2013-07-18T16:51:36Z</time>
      </trkpt>
      <trkpt lat="60.114210247993" lon="21.59715344198">
        <ele>21</ele>
        <time>2013-07-18T16:51:38Z</time>
      </trkpt>
      <trkpt lat="60.113992569968" lon="21.597422081977">
        <ele>19.8</ele>
        <time>2013-07-18T16:51:42Z</time>
      </trkpt>
      <trkpt lat="60.1134738978" lon="21.597681753337">
        <ele>16.6</ele>
        <time>2013-07-18T16:51:50Z</time>
      </trkpt>
      <trkpt lat="60.113136777654" lon="21.597795160487">
        <ele>14.2</ele>
        <time>2013-07-18T16:51:54Z</time>
      </trkpt>
      <trkpt lat="60.112325241789" lon="21.598070254549">
        <ele>10.2</ele>
        <time>2013-07-18T16:52:03Z</time>
      </trkpt>
      <trkpt lat="60.112245362252" lon="21.598111242056">
        <ele>10.4</ele>
        <time>2013-07-18T16:52:04Z</time>
      </trkpt>
      <trkpt lat="60.111998766661" lon="21.598487757146">
        <ele>10.8</ele>
        <time>2013-07-18T16:52:08Z</time>
      </trkpt>
      <trkpt lat="60.111917546019" lon="21.598778693005">
        <ele>10</ele>
        <time>2013-07-18T16:52:10Z</time>
      </trkpt>
      <trkpt lat="60.111734652892" lon="21.599541865289">
        <ele>7.6</ele>
        <time>2013-07-18T16:52:15Z</time>
      </trkpt>
      <trkpt lat="60.11153658852" lon="21.599944448099">
        <ele>6.2</ele>
        <time>2013-07-18T16:52:19Z</time>
      </trkpt>
      <trkpt lat="60.111420080066" lon="21.600055675954">
        <ele>6.2</ele>
        <time>2013-07-18T16:52:21Z</time>
      </trkpt>
      <trkpt lat="60.111114643514" lon="21.600207975134">
        <ele>6.8</ele>
        <time>2013-07-18T16:52:27Z</time>
      </trkpt>
      <trkpt lat="60.110948681831" lon="21.60009666346">
        <ele>7</ele>
        <time>2013-07-18T16:52:32Z</time>
      </trkpt>
      <trkpt lat="60.110817840323" lon="21.599675389007">
        <ele>7.8</ele>
        <time>2013-07-18T16:52:40Z</time>
      </trkpt>
      <trkpt lat="60.110800154507" lon="21.599590899423">
        <ele>8</ele>
        <time>2013-07-18T16:52:42Z</time>
      </trkpt>
      <trkpt lat="60.110696638003" lon="21.599474474788">
        <ele>8.8</ele>
        <time>2013-07-18T16:52:48Z</time>
      </trkpt>
      <trkpt lat="60.110687837005" lon="21.599437678233">
        <ele>8.8</ele>
        <time>2013-07-18T16:52:52Z</time>
      </trkpt>
      <trkpt lat="60.110712563619" lon="21.599424434826">
        <ele>8.8</ele>
        <time>2013-07-18T17:00:40Z</time>
      </trkpt>
      <trkpt lat="60.110769895837" lon="21.599486963823">
        <ele>8.4</ele>
        <time>2013-07-18T17:00:43Z</time>
      </trkpt>
      <trkpt lat="60.110885147005" lon="21.599898599088">
        <ele>7</ele>
        <time>2013-07-18T17:00:49Z</time>
      </trkpt>
      <trkpt lat="60.110974498093" lon="21.600154582411">
        <ele>7</ele>
        <time>2013-07-18T17:00:52Z</time>
      </trkpt>
      <trkpt lat="60.111149176955" lon="21.60029665567">
        <ele>6.8</ele>
        <time>2013-07-18T17:00:56Z</time>
      </trkpt>
      <trkpt lat="60.111288651824" lon="21.600235970691">
        <ele>6.4</ele>
        <time>2013-07-18T17:00:59Z</time>
      </trkpt>
      <trkpt lat="60.111582353711" lon="21.599970599636">
        <ele>6.2</ele>
        <time>2013-07-18T17:01:06Z</time>
      </trkpt>
      <trkpt lat="60.11168628931" lon="21.599805895239">
        <ele>6.6</ele>
        <time>2013-07-18T17:01:09Z</time>
      </trkpt>
      <trkpt lat="60.111772790551" lon="21.599608669057">
        <ele>7.4</ele>
        <time>2013-07-18T17:01:12Z</time>
      </trkpt>
      <trkpt lat="60.111951157451" lon="21.598903583363">
        <ele>9.4</ele>
        <time>2013-07-18T17:01:21Z</time>
      </trkpt>
      <trkpt lat="60.112005053088" lon="21.598690263927">
        <ele>10</ele>
        <time>2013-07-18T17:01:24Z</time>
      </trkpt>
      <trkpt lat="60.112041765824" lon="21.598553555086">
        <ele>10.4</ele>
        <time>2013-07-18T17:01:26Z</time>
      </trkpt>
      <trkpt lat="60.112223569304" lon="21.598257087171">
        <ele>10.4</ele>
        <time>2013-07-18T17:01:32Z</time>
      </trkpt>
      <trkpt lat="60.112579297274" lon="21.598061034456">
        <ele>9.8</ele>
        <time>2013-07-18T17:01:41Z</time>
      </trkpt>
      <trkpt lat="60.112926978618" lon="21.597935641184">
        <ele>12.4</ele>
        <time>2013-07-18T17:01:49Z</time>
      </trkpt>
      <trkpt lat="60.113283041865" lon="21.597841763869">
        <ele>15.2</ele>
        <time>2013-07-18T17:01:58Z</time>
      </trkpt>
      <trkpt lat="60.113503653556" lon="21.597766578197">
        <ele>16.8</ele>
        <time>2013-07-18T17:02:05Z</time>
      </trkpt>
      <trkpt lat="60.113727785647" lon="21.597666162997">
        <ele>18.2</ele>
        <time>2013-07-18T17:02:13Z</time>
      </trkpt>
      <trkpt lat="60.113963652402" lon="21.59754043445">
        <ele>19.8</ele>
        <time>2013-07-18T17:02:21Z</time>
      </trkpt>
      <trkpt lat="60.114209158346" lon="21.597307082266">
        <ele>21</ele>
        <time>2013-07-18T17:02:29Z</time>
      </trkpt>
      <trkpt lat="60.11437503621" lon="21.596957053989">
        <ele>21.8</ele>
        <time>2013-07-18T17:02:36Z</time>
      </trkpt>
      <trkpt lat="60.114494394511" lon="21.596493199468">
        <ele>22.4</ele>
        <time>2013-07-18T17:02:43Z</time>
      </trkpt>
      <trkpt lat="60.114509733394" lon="21.596429161727">
        <ele>22.4</ele>
        <time>2013-07-18T17:02:44Z</time>
      </trkpt>
      <trkpt lat="60.114618362859" lon="21.596484985203">
        <ele>23</ele>
        <time>2013-07-18T17:02:48Z</time>
      </trkpt>
      <trkpt lat="60.114668151364" lon="21.596642145887">
        <ele>23.4</ele>
        <time>2013-07-18T17:02:51Z</time>
      </trkpt>
      <trkpt lat="60.114757586271" lon="21.597054451704">
        <ele>23.4</ele>
        <time>2013-07-18T17:02:58Z</time>
      </trkpt>
      <trkpt lat="60.114882392809" lon="21.597224771976">
        <ele>23.8</ele>
        <time>2013-07-18T17:03:03Z</time>
      </trkpt>
      <trkpt lat="60.115020275116" lon="21.597366593778">
        <ele>24.2</ele>
        <time>2013-07-18T17:03:08Z</time>
      </trkpt>
      <trkpt lat="60.115152457729" lon="21.597556779161">
        <ele>24.4</ele>
        <time>2013-07-18T17:03:13Z</time>
      </trkpt>
      <trkpt lat="60.115291262046" lon="21.59793606028">
        <ele>24.8</ele>
        <time>2013-07-18T17:03:19Z</time>
      </trkpt>
      <trkpt lat="60.115336272866" lon="21.59830913879">
        <ele>24.6</ele>
        <time>2013-07-18T17:03:24Z</time>
      </trkpt>
      <trkpt lat="60.115329399705" lon="21.598807862028">
        <ele>23</ele>
        <time>2013-07-18T17:03:30Z</time>
      </trkpt>
      <trkpt lat="60.115335937589" lon="21.599271297455">
        <ele>21.4</ele>
        <time>2013-07-18T17:03:36Z</time>
      </trkpt>
      <trkpt lat="60.115376338363" lon="21.599731966853">
        <ele>20.2</ele>
        <time>2013-07-18T17:03:40Z</time>
      </trkpt>
      <trkpt lat="60.115389497951" lon="21.599860964343">
        <ele>19.8</ele>
        <time>2013-07-18T17:03:41Z</time>
      </trkpt>
      <trkpt lat="60.115561159328" lon="21.600731592625">
        <ele>18</ele>
        <time>2013-07-18T17:03:48Z</time>
      </trkpt>
      <trkpt lat="60.115579264238" lon="21.601358894259">
        <ele>17.8</ele>
        <time>2013-07-18T17:03:54Z</time>
      </trkpt>
      <trkpt lat="60.115553280339" lon="21.601987956092">
        <ele>17.6</ele>
        <time>2013-07-18T17:04:01Z</time>
      </trkpt>
      <trkpt lat="60.115550681949" lon="21.602071439847">
        <ele>17.8</ele>
        <time>2013-07-18T17:04:02Z</time>
      </trkpt>
      <trkpt lat="60.115561494604" lon="21.602424653247">
        <ele>17.8</ele>
        <time>2013-07-18T17:04:06Z</time>
      </trkpt>
      <trkpt lat="60.115658640862" lon="21.602963190526">
        <ele>18.6</ele>
        <time>2013-07-18T17:04:12Z</time>
      </trkpt>
      <trkpt lat="60.115705244243" lon="21.603155471385">
        <ele>18.8</ele>
        <time>2013-07-18T17:04:14Z</time>
      </trkpt>
      <trkpt lat="60.115762492642" lon="21.603444060311">
        <ele>18.6</ele>
        <time>2013-07-18T17:04:17Z</time>
      </trkpt>
      <trkpt lat="60.115766851231" lon="21.603949991986">
        <ele>16.8</ele>
        <time>2013-07-18T17:04:22Z</time>
      </trkpt>
      <trkpt lat="60.115716475993" lon="21.604395993054">
        <ele>16</ele>
        <time>2013-07-18T17:04:26Z</time>
      </trkpt>
      <trkpt lat="60.115745896474" lon="21.604726575315">
        <ele>15.4</ele>
        <time>2013-07-18T17:04:30Z</time>
      </trkpt>
      <trkpt lat="60.115847233683" lon="21.605052296072">
        <ele>15</ele>
        <time>2013-07-18T17:04:37Z</time>
      </trkpt>
      <trkpt lat="60.115959048271" lon="21.605419591069">
        <ele>15.4</ele>
        <time>2013-07-18T17:04:45Z</time>
      </trkpt>
      <trkpt lat="60.116108162329" lon="21.605774061754">
        <ele>15.8</ele>
        <time>2013-07-18T17:04:50Z</time>
      </trkpt>
      <trkpt lat="60.116193154827" lon="21.605902053416">
        <ele>16</ele>
        <time>2013-07-18T17:04:52Z</time>
      </trkpt>
      <trkpt lat="60.116358865052" lon="21.605996266007">
        <ele>16</ele>
        <time>2013-07-18T17:04:56Z</time>
      </trkpt>
      <trkpt lat="60.116526754573" lon="21.605971371755">
        <ele>16</ele>
        <time>2013-07-18T17:05:02Z</time>
      </trkpt>
      <trkpt lat="60.116746444255" lon="21.605937089771">
        <ele>15.6</ele>
        <time>2013-07-18T17:05:09Z</time>
      </trkpt>
      <trkpt lat="60.116993375123" lon="21.605912363157">
        <ele>14.8</ele>
        <time>2013-07-18T17:05:16Z</time>
      </trkpt>
      <trkpt lat="60.11732429266" lon="21.605857042596">
        <ele>13.6</ele>
        <time>2013-07-18T17:05:24Z</time>
      </trkpt>
      <trkpt lat="60.11769217439" lon="21.605795351788">
        <ele>13.8</ele>
        <time>2013-07-18T17:05:33Z</time>
      </trkpt>
      <trkpt lat="60.117948241532" lon="21.605759644881">
        <ele>15</ele>
        <time>2013-07-18T17:05:41Z</time>
      </trkpt>
      <trkpt lat="60.118111353368" lon="21.605713292956">
        <ele>15.8</ele>
        <time>2013-07-18T17:05:48Z</time>
      </trkpt>
      <trkpt lat="60.11825568974" lon="21.605759058148">
        <ele>16.4</ele>
        <time>2013-07-18T17:05:54Z</time>
      </trkpt>
      <trkpt lat="60.118354260921" lon="21.605951255187">
        <ele>17</ele>
        <time>2013-07-18T17:05:59Z</time>
      </trkpt>
      <trkpt lat="60.118467165157" lon="21.606359034777">
        <ele>17.8</ele>
        <time>2013-07-18T17:06:06Z</time>
      </trkpt>
      <trkpt lat="60.118593564257" lon="21.606713337824">
        <ele>18.8</ele>
        <time>2013-07-18T17:06:12Z</time>
      </trkpt>
      <trkpt lat="60.118726165965" lon="21.606958759949">
        <ele>20</ele>
        <time>2013-07-18T17:06:17Z</time>
      </trkpt>
      <trkpt lat="60.118789197877" lon="21.607031598687">
        <ele>20.6</ele>
        <time>2013-07-18T17:06:20Z</time>
      </trkpt>
      <trkpt lat="60.118756173179" lon="21.606976361945">
        <ele>20.2</ele>
        <time>2013-07-18T17:06:26Z</time>
      </trkpt>
      <trkpt lat="60.118632959202" lon="21.606806963682">
        <ele>19.2</ele>
        <time>2013-07-18T17:06:31Z</time>
      </trkpt>
      <trkpt lat="60.118611333892" lon="21.606747535989">
        <ele>19</ele>
        <time>2013-07-18T17:06:32Z</time>
      </trkpt>
      <trkpt lat="60.11848426424" lon="21.60632148385">
        <ele>17.8</ele>
        <time>2013-07-18T17:06:39Z</time>
      </trkpt>
      <trkpt lat="60.118430368602" lon="21.606048652902">
        <ele>17.4</ele>
        <time>2013-07-18T17:06:43Z</time>
      </trkpt>
      <trkpt lat="60.118299359456" lon="21.605744054541">
        <ele>16.6</ele>
        <time>2013-07-18T17:06:48Z</time>
      </trkpt>
      <trkpt lat="60.118137840182" lon="21.605694936588">
        <ele>15.8</ele>
        <time>2013-07-18T17:06:52Z</time>
      </trkpt>
      <trkpt lat="60.117746070027" lon="21.60572854802">
        <ele>14</ele>
        <time>2013-07-18T17:07:01Z</time>
      </trkpt>
      <trkpt lat="60.117471646518" lon="21.605764757842">
        <ele>13</ele>
        <time>2013-07-18T17:07:08Z</time>
      </trkpt>
      <trkpt lat="60.117066968232" lon="21.605833657086">
        <ele>14.4</ele>
        <time>2013-07-18T17:07:17Z</time>
      </trkpt>
      <trkpt lat="60.116858677939" lon="21.60586098209">
        <ele>15.2</ele>
        <time>2013-07-18T17:07:23Z</time>
      </trkpt>
      <trkpt lat="60.116626750678" lon="21.605874141678">
        <ele>16</ele>
        <time>2013-07-18T17:07:31Z</time>
      </trkpt>
      <trkpt lat="60.116416448727" lon="21.605914877728">
        <ele>16</ele>
        <time>2013-07-18T17:07:37Z</time>
      </trkpt>
      <trkpt lat="60.116248475388" lon="21.605886546895">
        <ele>16</ele>
        <time>2013-07-18T17:07:41Z</time>
      </trkpt>
      <trkpt lat="60.116098187864" lon="21.605679346249">
        <ele>15.6</ele>
        <time>2013-07-18T17:07:45Z</time>
      </trkpt>
      <trkpt lat="60.116069437936" lon="21.605629390106">
        <ele>15.6</ele>
        <time>2013-07-18T17:07:46Z</time>
      </trkpt>
      <trkpt lat="60.116024594754" lon="21.605526963249">
        <ele>15.4</ele>
        <time>2013-07-18T17:07:48Z</time>
      </trkpt>
      <trkpt lat="60.115952175111" lon="21.605371646583">
        <ele>15.2</ele>
        <time>2013-07-18T17:07:52Z</time>
      </trkpt>
      <trkpt lat="60.115820160136" lon="21.605076184496">
        <ele>15</ele>
        <time>2013-07-18T17:07:58Z</time>
      </trkpt>
      <trkpt lat="60.11570205912" lon="21.604653149843">
        <ele>15.6</ele>
        <time>2013-07-18T17:08:03Z</time>
      </trkpt>
      <trkpt lat="60.115729551762" lon="21.604150570929">
        <ele>16.4</ele>
        <time>2013-07-18T17:08:08Z</time>
      </trkpt>
      <trkpt lat="60.115766851231" lon="21.603798279539">
        <ele>17.4</ele>
        <time>2013-07-18T17:08:12Z</time>
      </trkpt>
      <trkpt lat="60.115762995556" lon="21.603647489101">
        <ele>18</ele>
        <time>2013-07-18T17:08:14Z</time>
      </trkpt>
      <trkpt lat="60.115733658895" lon="21.603251863271">
        <ele>19</ele>
        <time>2013-07-18T17:08:20Z</time>
      </trkpt>
      <trkpt lat="60.115669537336" lon="21.602926393971">
        <ele>18.6</ele>
        <time>2013-07-18T17:08:26Z</time>
      </trkpt>
      <trkpt lat="60.115593345836" lon="21.602524733171">
        <ele>18</ele>
        <time>2013-07-18T17:08:33Z</time>
      </trkpt>
      <trkpt lat="60.115566775203" lon="21.602135058492">
        <ele>17.8</ele>
        <time>2013-07-18T17:08:38Z</time>
      </trkpt>
      <trkpt lat="60.1155790966" lon="21.601574979722">
        <ele>17.6</ele>
        <time>2013-07-18T17:08:44Z</time>
      </trkpt>
      <trkpt lat="60.115572055802" lon="21.601292258129">
        <ele>17.8</ele>
        <time>2013-07-18T17:08:47Z</time>
      </trkpt>
      <trkpt lat="60.115560656413" lon="21.601032586768">
        <ele>17.8</ele>
        <time>2013-07-18T17:08:50Z</time>
      </trkpt>
      <trkpt lat="60.115551855415" lon="21.600680463016">
        <ele>18.2</ele>
        <time>2013-07-18T17:08:54Z</time>
      </trkpt>
      <trkpt lat="60.115518746898" lon="21.600495139137">
        <ele>18.4</ele>
        <time>2013-07-18T17:08:56Z</time>
      </trkpt>
      <trkpt lat="60.115388995036" lon="21.599943358451">
        <ele>19.6</ele>
        <time>2013-07-18T17:09:02Z</time>
      </trkpt>
      <trkpt lat="60.115332165733" lon="21.599431559443">
        <ele>21</ele>
        <time>2013-07-18T17:09:09Z</time>
      </trkpt>
      <trkpt lat="60.115335769951" lon="21.598965357989">
        <ele>22.4</ele>
        <time>2013-07-18T17:09:18Z</time>
      </trkpt>
      <trkpt lat="60.115330740809" lon="21.598517093807">
        <ele>23.8</ele>
        <time>2013-07-18T17:09:25Z</time>
      </trkpt>
      <trkpt lat="60.115295285359" lon="21.59799054265">
        <ele>24.8</ele>
        <time>2013-07-18T17:09:33Z</time>
      </trkpt>
      <trkpt lat="60.115213477984" lon="21.597677562386">
        <ele>24.6</ele>
        <time>2013-07-18T17:09:38Z</time>
      </trkpt>
      <trkpt lat="60.115027148277" lon="21.597333652899">
        <ele>24.2</ele>
        <time>2013-07-18T17:09:44Z</time>
      </trkpt>
      <trkpt lat="60.114851547405" lon="21.597125194967">
        <ele>23.8</ele>
        <time>2013-07-18T17:09:49Z</time>
      </trkpt>
      <trkpt lat="60.11471525766" lon="21.596848256886">
        <ele>23.4</ele>
        <time>2013-07-18T17:09:54Z</time>
      </trkpt>
      <trkpt lat="60.114588271827" lon="21.596396388486">
        <ele>23</ele>
        <time>2013-07-18T17:10:00Z</time>
      </trkpt>
      <trkpt lat="60.114561365917" lon="21.596315084025">
        <ele>22.8</ele>
        <time>2013-07-18T17:10:01Z</time>
      </trkpt>
      <trkpt lat="60.114563964307" lon="21.595893641934">
        <ele>22.8</ele>
        <time>2013-07-18T17:10:06Z</time>
      </trkpt>
      <trkpt lat="60.114556252956" lon="21.595620559528">
        <ele>22.4</ele>
        <time>2013-07-18T17:10:09Z</time>
      </trkpt>
      <trkpt lat="60.114513337612" lon="21.594808856025">
        <ele>20.4</ele>
        <time>2013-07-18T17:10:16Z</time>
      </trkpt>
      <trkpt lat="60.114508392289" lon="21.59467516467">
        <ele>20</ele>
        <time>2013-07-18T17:10:17Z</time>
      </trkpt>
      <trkpt lat="60.114574860781" lon="21.593676963821">
        <ele>17.8</ele>
        <time>2013-07-18T17:10:24Z</time>
      </trkpt>
      <trkpt lat="60.114706959575" lon="21.592895770445">
        <ele>17.2</ele>
        <time>2013-07-18T17:10:30Z</time>
      </trkpt>
      <trkpt lat="60.114898653701" lon="21.592283556238">
        <ele>17.6</ele>
        <time>2013-07-18T17:10:36Z</time>
      </trkpt>
      <trkpt lat="60.115091437474" lon="21.59177175723">
        <ele>18.6</ele>
        <time>2013-07-18T17:10:41Z</time>
      </trkpt>
      <trkpt lat="60.115476250648" lon="21.590797360986">
        <ele>21.2</ele>
        <time>2013-07-18T17:10:51Z</time>
      </trkpt>
      <trkpt lat="60.115672135726" lon="21.590220686048">
        <ele>22</ele>
        <time>2013-07-18T17:10:57Z</time>
      </trkpt>
      <trkpt lat="60.115748746321" lon="21.58990628086">
        <ele>22.2</ele>
        <time>2013-07-18T17:11:00Z</time>
      </trkpt>
      <trkpt lat="60.115793254226" lon="21.589567065239">
        <ele>23</ele>
        <time>2013-07-18T17:11:03Z</time>
      </trkpt>
      <trkpt lat="60.115821082145" lon="21.58889609389">
        <ele>23.6</ele>
        <time>2013-07-18T17:11:09Z</time>
      </trkpt>
      <trkpt lat="60.115833571181" lon="21.588562158868">
        <ele>23.2</ele>
        <time>2013-07-18T17:11:12Z</time>
      </trkpt>
      <trkpt lat="60.115891573951" lon="21.587896971032">
        <ele>21.4</ele>
        <time>2013-07-18T17:11:18Z</time>
      </trkpt>
      <trkpt lat="60.115904565901" lon="21.587683483958">
        <ele>20.8</ele>
        <time>2013-07-18T17:11:20Z</time>
      </trkpt>
      <trkpt lat="60.115928454325" lon="21.586793158203">
        <ele>20</ele>
        <time>2013-07-18T17:11:28Z</time>
      </trkpt>
      <trkpt lat="60.115945553407" lon="21.586355958134">
        <ele>20.6</ele>
        <time>2013-07-18T17:11:32Z</time>
      </trkpt>
      <trkpt lat="60.116084944457" lon="21.585652297363">
        <ele>21.4</ele>
        <time>2013-07-18T17:11:39Z</time>
      </trkpt>
      <trkpt lat="60.116255767643" lon="21.5852318611">
        <ele>21.2</ele>
        <time>2013-07-18T17:11:45Z</time>
      </trkpt>
      <trkpt lat="60.116535890847" lon="21.584660969675">
        <ele>20.2</ele>
        <time>2013-07-18T17:11:54Z</time>
      </trkpt>
      <trkpt lat="60.116718364879" lon="21.584171550348">
        <ele>20</ele>
        <time>2013-07-18T17:11:59Z</time>
      </trkpt>
      <trkpt lat="60.116783659905" lon="21.583920260891">
        <ele>20.4</ele>
        <time>2013-07-18T17:12:01Z</time>
      </trkpt>
      <trkpt lat="60.116988178343" lon="21.582842851058">
        <ele>20</ele>
        <time>2013-07-18T17:12:09Z</time>
      </trkpt>
      <trkpt lat="60.117015335709" lon="21.582722486928">
        <ele>19.8</ele>
        <time>2013-07-18T17:12:10Z</time>
      </trkpt>
      <trkpt lat="60.117151960731" lon="21.582300961018">
        <ele>18.4</ele>
        <time>2013-07-18T17:12:14Z</time>
      </trkpt>
      <trkpt lat="60.117142656818" lon="21.581926457584">
        <ele>16.8</ele>
        <time>2013-07-18T17:12:17Z</time>
      </trkpt>
      <trkpt lat="60.117054563016" lon="21.581697463989">
        <ele>16</ele>
        <time>2013-07-18T17:12:19Z</time>
      </trkpt>
      <trkpt lat="60.116508565843" lon="21.580483680591">
        <ele>12.8</ele>
        <time>2013-07-18T17:12:30Z</time>
      </trkpt>
      <trkpt lat="60.116166165099" lon="21.579575249925">
        <ele>13.8</ele>
        <time>2013-07-18T17:12:38Z</time>
      </trkpt>
      <trkpt lat="60.115853184834" lon="21.578520638868">
        <ele>14</ele>
        <time>2013-07-18T17:12:47Z</time>
      </trkpt>
      <trkpt lat="60.115657970309" lon="21.577601898462">
        <ele>14.2</ele>
        <time>2013-07-18T17:12:55Z</time>
      </trkpt>
      <trkpt lat="60.115486560389" lon="21.576569750905">
        <ele>13.4</ele>
        <time>2013-07-18T17:13:04Z</time>
      </trkpt>
      <trkpt lat="60.115350186825" lon="21.575524946675">
        <ele>13.2</ele>
        <time>2013-07-18T17:13:13Z</time>
      </trkpt>
      <trkpt lat="60.115256477147" lon="21.574567565694">
        <ele>15.2</ele>
        <time>2013-07-18T17:13:21Z</time>
      </trkpt>
      <trkpt lat="60.115191685036" lon="21.573336683214">
        <ele>16.4</ele>
        <time>2013-07-18T17:13:31Z</time>
      </trkpt>
      <trkpt lat="60.115195456892" lon="21.572419786826">
        <ele>14.6</ele>
        <time>2013-07-18T17:13:39Z</time>
      </trkpt>
      <trkpt lat="60.115192858502" lon="21.571487551555">
        <ele>14</ele>
        <time>2013-07-18T17:13:48Z</time>
      </trkpt>
      <trkpt lat="60.115191852674" lon="21.57055565156">
        <ele>14</ele>
        <time>2013-07-18T17:13:57Z</time>
      </trkpt>
      <trkpt lat="60.115197133273" lon="21.569311860949">
        <ele>15.4</ele>
        <time>2013-07-18T17:14:09Z</time>
      </trkpt>
      <trkpt lat="60.115197049454" lon="21.568153062835">
        <ele>18.2</ele>
        <time>2013-07-18T17:14:20Z</time>
      </trkpt>
      <trkpt lat="60.115200150758" lon="21.567189982161">
        <ele>18.4</ele>
        <time>2013-07-18T17:14:30Z</time>
      </trkpt>
      <trkpt lat="60.115196462721" lon="21.566071836278">
        <ele>17.2</ele>
        <time>2013-07-18T17:14:41Z</time>
      </trkpt>
      <trkpt lat="60.115189338103" lon="21.565004736185">
        <ele>15.2</ele>
        <time>2013-07-18T17:14:50Z</time>
      </trkpt>
      <trkpt lat="60.115209957585" lon="21.564026735723">
        <ele>13.6</ele>
        <time>2013-07-18T17:14:57Z</time>
      </trkpt>
      <trkpt lat="60.115264775231" lon="21.563425250351">
        <ele>13.6</ele>
        <time>2013-07-18T17:15:01Z</time>
      </trkpt>
      <trkpt lat="60.115418583155" lon="21.562474155799">
        <ele>15</ele>
        <time>2013-07-18T17:15:08Z</time>
      </trkpt>
      <trkpt lat="60.11554188095" lon="21.561806956306">
        <ele>15.2</ele>
        <time>2013-07-18T17:15:14Z</time>
      </trkpt>
      <trkpt lat="60.11567087844" lon="21.561117041856">
        <ele>14.8</ele>
        <time>2013-07-18T17:15:21Z</time>
      </trkpt>
      <trkpt lat="60.115766599774" lon="21.560657462105">
        <ele>15</ele>
        <time>2013-07-18T17:15:26Z</time>
      </trkpt>
      <trkpt lat="60.115807084367" lon="21.560373567045">
        <ele>15.4</ele>
        <time>2013-07-18T17:15:29Z</time>
      </trkpt>
      <trkpt lat="60.115868775174" lon="21.55971785076">
        <ele>16.2</ele>
        <time>2013-07-18T17:15:36Z</time>
      </trkpt>
      <trkpt lat="60.115938680246" lon="21.558808581904">
        <ele>17.4</ele>
        <time>2013-07-18T17:15:46Z</time>
      </trkpt>
      <trkpt lat="60.115956785157" lon="21.558429468423">
        <ele>17.8</ele>
        <time>2013-07-18T17:15:50Z</time>
      </trkpt>
      <trkpt lat="60.115959383547" lon="21.55823148787">
        <ele>17.8</ele>
        <time>2013-07-18T17:15:52Z</time>
      </trkpt>
      <trkpt lat="60.115999365225" lon="21.557681467384">
        <ele>17.2</ele>
        <time>2013-07-18T17:15:58Z</time>
      </trkpt>
      <trkpt lat="60.115996683016" lon="21.557387849316">
        <ele>17</ele>
        <time>2013-07-18T17:16:01Z</time>
      </trkpt>
      <trkpt lat="60.116018559784" lon="21.556628281251">
        <ele>17.2</ele>
        <time>2013-07-18T17:16:09Z</time>
      </trkpt>
      <trkpt lat="60.116024175659" lon="21.556537253782">
        <ele>17.2</ele>
        <time>2013-07-18T17:16:10Z</time>
      </trkpt>
      <trkpt lat="60.115942452103" lon="21.556266853586">
        <ele>17.6</ele>
        <time>2013-07-18T17:16:14Z</time>
      </trkpt>
      <trkpt lat="60.115850167349" lon="21.556244138628">
        <ele>17.4</ele>
        <time>2013-07-18T17:16:16Z</time>
      </trkpt>
      <trkpt lat="60.115717984736" lon="21.556280767545">
        <ele>17.2</ele>
        <time>2013-07-18T17:16:20Z</time>
      </trkpt>
      <trkpt lat="60.115552442148" lon="21.556229554117">
        <ele>17</ele>
        <time>2013-07-18T17:16:25Z</time>
      </trkpt>
      <trkpt lat="60.115376086906" lon="21.555965188891">
        <ele>16.8</ele>
        <time>2013-07-18T17:16:31Z</time>
      </trkpt>
      <trkpt lat="60.11523543857" lon="21.555722365156">
        <ele>16.6</ele>
        <time>2013-07-18T17:16:35Z</time>
      </trkpt>
      <trkpt lat="60.115160252899" lon="21.555619938299">
        <ele>16.4</ele>
        <time>2013-07-18T17:16:37Z</time>
      </trkpt>
      <trkpt lat="60.115009294823" lon="21.555245686322">
        <ele>16</ele>
        <time>2013-07-18T17:16:43Z</time>
      </trkpt>
      <trkpt lat="60.115016084164" lon="21.554968999699">
        <ele>16</ele>
        <time>2013-07-18T17:16:47Z</time>
      </trkpt>
      <trkpt lat="60.115031842142" lon="21.554908482358">
        <ele>16</ele>
        <time>2013-07-18T17:16:48Z</time>
      </trkpt>
      <trkpt lat="60.115077858791" lon="21.554611679167">
        <ele>16.2</ele>
        <time>2013-07-18T17:16:54Z</time>
      </trkpt>
      <trkpt lat="60.115091940388" lon="21.554360892624">
        <ele>16.2</ele>
        <time>2013-07-18T17:17:02Z</time>
      </trkpt>
      <trkpt lat="60.115077355877" lon="21.554338261485">
        <ele>16.2</ele>
        <time>2013-07-18T17:17:06Z</time>
      </trkpt>
      <trkpt lat="60.115066040307" lon="21.554542947561">
        <ele>16.2</ele>
        <time>2013-07-18T17:18:29Z</time>
      </trkpt>
      <trkpt lat="60.115030836314" lon="21.554847965017">
        <ele>16</ele>
        <time>2013-07-18T17:18:33Z</time>
      </trkpt>
      <trkpt lat="60.11499135755" lon="21.555255074054">
        <ele>15.8</ele>
        <time>2013-07-18T17:18:38Z</time>
      </trkpt>
      <trkpt lat="60.115069560707" lon="21.555509297177">
        <ele>16</ele>
        <time>2013-07-18T17:18:42Z</time>
      </trkpt>
      <trkpt lat="60.115127479658" lon="21.555610969663">
        <ele>16.2</ele>
        <time>2013-07-18T17:18:44Z</time>
      </trkpt>
      <trkpt lat="60.115290256217" lon="21.555904839188">
        <ele>16.6</ele>
        <time>2013-07-18T17:18:49Z</time>
      </trkpt>
      <trkpt lat="60.115427132696" lon="21.556191165">
        <ele>16.8</ele>
        <time>2013-07-18T17:18:54Z</time>
      </trkpt>
      <trkpt lat="60.115490583703" lon="21.556297950447">
        <ele>16.8</ele>
        <time>2013-07-18T17:18:56Z</time>
      </trkpt>
      <trkpt lat="60.115655791014" lon="21.556383697316">
        <ele>17</ele>
        <time>2013-07-18T17:19:00Z</time>
      </trkpt>
      <trkpt lat="60.115795768797" lon="21.556345056742">
        <ele>17.2</ele>
        <time>2013-07-18T17:19:03Z</time>
      </trkpt>
      <trkpt lat="60.115964747965" lon="21.556201893836">
        <ele>17.6</ele>
        <time>2013-07-18T17:19:07Z</time>
      </trkpt>
      <trkpt lat="60.115996850654" lon="21.556014642119">
        <ele>17.8</ele>
        <time>2013-07-18T17:19:09Z</time>
      </trkpt>
      <trkpt lat="60.116078071296" lon="21.555135464296">
        <ele>18.8</ele>
        <time>2013-07-18T17:19:18Z</time>
      </trkpt>
      <trkpt lat="60.116095757112" lon="21.554838661104">
        <ele>18.8</ele>
        <time>2013-07-18T17:19:21Z</time>
      </trkpt>
      <trkpt lat="60.116113862023" lon="21.554426858202">
        <ele>18.6</ele>
        <time>2013-07-18T17:19:25Z</time>
      </trkpt>
      <trkpt lat="60.116157447919" lon="21.553438799456">
        <ele>18</ele>
        <time>2013-07-18T17:19:34Z</time>
      </trkpt>
      <trkpt lat="60.116244954988" lon="21.552649475634">
        <ele>17</ele>
        <time>2013-07-18T17:19:41Z</time>
      </trkpt>
      <trkpt lat="60.116364061832" lon="21.551975738257">
        <ele>16.8</ele>
        <time>2013-07-18T17:19:47Z</time>
      </trkpt>
      <trkpt lat="60.116461962461" lon="21.551403673366">
        <ele>16.2</ele>
        <time>2013-07-18T17:19:52Z</time>
      </trkpt>
      <trkpt lat="60.1165832486" lon="21.550712250173">
        <ele>14.8</ele>
        <time>2013-07-18T17:19:58Z</time>
      </trkpt>
      <trkpt lat="60.116697158664" lon="21.549919992685">
        <ele>13</ele>
        <time>2013-07-18T17:20:05Z</time>
      </trkpt>
      <trkpt lat="60.116869155318" lon="21.548879547045">
        <ele>13</ele>
        <time>2013-07-18T17:20:15Z</time>
      </trkpt>
      <trkpt lat="60.117069566622" lon="21.547690741718">
        <ele>14.6</ele>
        <time>2013-07-18T17:20:26Z</time>
      </trkpt>
      <trkpt lat="60.117229744792" lon="21.546772671863">
        <ele>14.6</ele>
        <time>2013-07-18T17:20:34Z</time>
      </trkpt>
      <trkpt lat="60.117371734232" lon="21.545667769387">
        <ele>13.2</ele>
        <time>2013-07-18T17:20:43Z</time>
      </trkpt>
      <trkpt lat="60.117406351492" lon="21.544674597681">
        <ele>14.4</ele>
        <time>2013-07-18T17:20:51Z</time>
      </trkpt>
      <trkpt lat="60.117405597121" lon="21.544445352629">
        <ele>14.8</ele>
        <time>2013-07-18T17:20:53Z</time>
      </trkpt>
      <trkpt lat="60.117395035923" lon="21.543691987172">
        <ele>16</ele>
        <time>2013-07-18T17:21:00Z</time>
      </trkpt>
      <trkpt lat="60.117380451411" lon="21.543041383848">
        <ele>16.4</ele>
        <time>2013-07-18T17:21:06Z</time>
      </trkpt>
      <trkpt lat="60.117352958769" lon="21.542287347838">
        <ele>16</ele>
        <time>2013-07-18T17:21:13Z</time>
      </trkpt>
      <trkpt lat="60.117333093658" lon="21.54136877507">
        <ele>16.4</ele>
        <time>2013-07-18T17:21:22Z</time>
      </trkpt>
      <trkpt lat="60.11733208783" lon="21.540289688855">
        <ele>16.4</ele>
        <time>2013-07-18T17:21:32Z</time>
      </trkpt>
      <trkpt lat="60.117401741445" lon="21.539466250688">
        <ele>15.8</ele>
        <time>2013-07-18T17:21:39Z</time>
      </trkpt>
      <trkpt lat="60.1175389532" lon="21.538686566055">
        <ele>15.6</ele>
        <time>2013-07-18T17:21:45Z</time>
      </trkpt>
      <trkpt lat="60.117742968723" lon="21.537780398503">
        <ele>14.8</ele>
        <time>2013-07-18T17:21:51Z</time>
      </trkpt>
      <trkpt lat="60.117939859629" lon="21.5368145518">
        <ele>15</ele>
        <time>2013-07-18T17:21:57Z</time>
      </trkpt>
      <trkpt lat="60.118005489931" lon="21.536060264334">
        <ele>15.6</ele>
        <time>2013-07-18T17:22:02Z</time>
      </trkpt>
      <trkpt lat="60.117988055572" lon="21.53527806513">
        <ele>16</ele>
        <time>2013-07-18T17:22:08Z</time>
      </trkpt>
      <trkpt lat="60.117898872122" lon="21.534416992217">
        <ele>15.4</ele>
        <time>2013-07-18T17:22:16Z</time>
      </trkpt>
      <trkpt lat="60.11777096428" lon="21.533428262919">
        <ele>13.4</ele>
        <time>2013-07-18T17:22:25Z</time>
      </trkpt>
      <trkpt lat="60.117689492181" lon="21.532691074535">
        <ele>10.8</ele>
        <time>2013-07-18T17:22:31Z</time>
      </trkpt>
      <trkpt lat="60.117646493018" lon="21.531641576439">
        <ele>7</ele>
        <time>2013-07-18T17:22:38Z</time>
      </trkpt>
      <trkpt lat="60.117658060044" lon="21.530543379486">
        <ele>6.6</ele>
        <time>2013-07-18T17:22:45Z</time>
      </trkpt>
      <trkpt lat="60.117691252381" lon="21.529395561665">
        <ele>8.6</ele>
        <time>2013-07-18T17:22:53Z</time>
      </trkpt>
      <trkpt lat="60.117667196319" lon="21.528510265052">
        <ele>10.4</ele>
        <time>2013-07-18T17:23:00Z</time>
      </trkpt>
      <trkpt lat="60.117612965405" lon="21.527855554596">
        <ele>10.8</ele>
        <time>2013-07-18T17:23:05Z</time>
      </trkpt>
      <trkpt lat="60.11760039255" lon="21.527726557106">
        <ele>10.8</ele>
        <time>2013-07-18T17:23:06Z</time>
      </trkpt>
      <trkpt lat="60.11743769981" lon="21.526891971007">
        <ele>11.8</ele>
        <time>2013-07-18T17:23:13Z</time>
      </trkpt>
      <trkpt lat="60.117290345952" lon="21.526276487857">
        <ele>12.2</ele>
        <time>2013-07-18T17:23:19Z</time>
      </trkpt>
      <trkpt lat="60.117082558572" lon="21.525519099087">
        <ele>11.8</ele>
        <time>2013-07-18T17:23:27Z</time>
      </trkpt>
      <trkpt lat="60.11683085002" lon="21.524619637057">
        <ele>10.8</ele>
        <time>2013-07-18T17:23:36Z</time>
      </trkpt>
      <trkpt lat="60.116576291621" lon="21.523729562759">
        <ele>10.8</ele>
        <time>2013-07-18T17:23:45Z</time>
      </trkpt>
      <trkpt lat="60.116258449852" lon="21.52270026505">
        <ele>10.4</ele>
        <time>2013-07-18T17:23:55Z</time>
      </trkpt>
      <trkpt lat="60.116031970829" lon="21.522157872096">
        <ele>11.2</ele>
        <time>2013-07-18T17:24:01Z</time>
      </trkpt>
      <trkpt lat="60.115767186508" lon="21.521617742255">
        <ele>13.2</ele>
        <time>2013-07-18T17:24:08Z</time>
      </trkpt>
      <trkpt lat="60.115382457152" lon="21.520905364305">
        <ele>16</ele>
        <time>2013-07-18T17:24:19Z</time>
      </trkpt>
      <trkpt lat="60.115040475503" lon="21.520308740437">
        <ele>16.6</ele>
        <time>2013-07-18T17:24:29Z</time>
      </trkpt>
      <trkpt lat="60.114731937647" lon="21.519770454615">
        <ele>17.4</ele>
        <time>2013-07-18T17:24:38Z</time>
      </trkpt>
      <trkpt lat="60.114402193576" lon="21.519162263721">
        <ele>17.2</ele>
        <time>2013-07-18T17:24:47Z</time>
      </trkpt>
      <trkpt lat="60.11406599544" lon="21.518569160253">
        <ele>15.6</ele>
        <time>2013-07-18T17:24:55Z</time>
      </trkpt>
      <trkpt lat="60.113733485341" lon="21.517944037914">
        <ele>13.4</ele>
        <time>2013-07-18T17:25:02Z</time>
      </trkpt>
      <trkpt lat="60.113320089877" lon="21.517162844539">
        <ele>10.2</ele>
        <time>2013-07-18T17:25:10Z</time>
      </trkpt>
      <trkpt lat="60.11303066276" lon="21.516466140747">
        <ele>8</ele>
        <time>2013-07-18T17:25:16Z</time>
      </trkpt>
      <trkpt lat="60.112783899531" lon="21.515632057562">
        <ele>4.6</ele>
        <time>2013-07-18T17:25:23Z</time>
      </trkpt>
      <trkpt lat="60.112625481561" lon="21.514897635207">
        <ele>1.6</ele>
        <time>2013-07-18T17:25:30Z</time>
      </trkpt>
      <trkpt lat="60.112559851259" lon="21.514589264989">
        <ele>1</ele>
        <time>2013-07-18T17:25:33Z</time>
      </trkpt>
      <trkpt lat="60.112540237606" lon="21.514253988862">
        <ele>0.2</ele>
        <time>2013-07-18T17:25:37Z</time>
      </trkpt>
      <trkpt lat="60.112486761063" lon="21.514260778204">
        <ele>0.2</ele>
        <time>2013-07-18T17:25:40Z</time>
      </trkpt>
      <trkpt lat="60.112491454929" lon="21.514322971925">
        <ele>0.4</ele>
        <time>2013-07-18T17:25:43Z</time>
      </trkpt>
      <trkpt lat="60.112490868196" lon="21.514319367707">
        <ele>0.4</ele>
        <time>2013-07-18T17:25:44Z</time>
      </trkpt>
      <trkpt lat="60.112532861531" lon="21.514407796785">
        <ele>0.6</ele>
        <time>2013-07-18T17:27:23Z</time>
      </trkpt>
      <trkpt lat="60.112585835159" lon="21.514700660482">
        <ele>1.2</ele>
        <time>2013-07-18T17:27:27Z</time>
      </trkpt>
      <trkpt lat="60.112744756043" lon="21.515434663743">
        <ele>3.8</ele>
        <time>2013-07-18T17:27:36Z</time>
      </trkpt>
      <trkpt lat="60.112939886749" lon="21.51619666256">
        <ele>7</ele>
        <time>2013-07-18T17:27:44Z</time>
      </trkpt>
      <trkpt lat="60.113129233941" lon="21.51679395698">
        <ele>9.2</ele>
        <time>2013-07-18T17:27:51Z</time>
      </trkpt>
      <trkpt lat="60.113342050463" lon="21.517288070172">
        <ele>10.4</ele>
        <time>2013-07-18T17:27:58Z</time>
      </trkpt>
      <trkpt lat="60.113376164809" lon="21.517352694646">
        <ele>10.6</ele>
        <time>2013-07-18T17:27:59Z</time>
      </trkpt>
      <trkpt lat="60.11350675486" lon="21.517609264702">
        <ele>11.8</ele>
        <time>2013-07-18T17:28:03Z</time>
      </trkpt>
      <trkpt lat="60.11366517283" lon="21.5178915672">
        <ele>13.2</ele>
        <time>2013-07-18T17:28:08Z</time>
      </trkpt>
      <trkpt lat="60.113958371803" lon="21.518452651799">
        <ele>15.2</ele>
        <time>2013-07-18T17:28:17Z</time>
      </trkpt>
      <trkpt lat="60.114061553031" lon="21.518633784726">
        <ele>15.6</ele>
        <time>2013-07-18T17:28:20Z</time>
      </trkpt>
      <trkpt lat="60.114232543856" lon="21.518977275118">
        <ele>16.6</ele>
        <time>2013-07-18T17:28:25Z</time>
      </trkpt>
      <trkpt lat="60.114339161664" lon="21.519162096083">
        <ele>17</ele>
        <time>2013-07-18T17:28:28Z</time>
      </trkpt>
      <trkpt lat="60.114547954872" lon="21.519559565932">
        <ele>17.4</ele>
        <time>2013-07-18T17:28:34Z</time>
      </trkpt>
      <trkpt lat="60.114700673148" lon="21.519846562296">
        <ele>17.4</ele>
        <time>2013-07-18T17:28:38Z</time>
      </trkpt>
      <trkpt lat="60.114825479686" lon="21.520096175373">
        <ele>17</ele>
        <time>2013-07-18T17:28:41Z</time>
      </trkpt>
      <trkpt lat="60.114971576259" lon="21.520315865055">
        <ele>16.6</ele>
        <time>2013-07-18T17:28:44Z</time>
      </trkpt>
      <trkpt lat="60.115427384153" lon="21.521141650155">
        <ele>15.2</ele>
        <time>2013-07-18T17:28:53Z</time>
      </trkpt>
      <trkpt lat="60.115833655" lon="21.521918987855">
        <ele>11.6</ele>
        <time>2013-07-18T17:29:00Z</time>
      </trkpt>
      <trkpt lat="60.1159600541" lon="21.522147562355">
        <ele>11</ele>
        <time>2013-07-18T17:29:02Z</time>
      </trkpt>
      <trkpt lat="60.116266245022" lon="21.52289246209">
        <ele>10</ele>
        <time>2013-07-18T17:29:08Z</time>
      </trkpt>
      <trkpt lat="60.116567993537" lon="21.52398663573">
        <ele>10.4</ele>
        <time>2013-07-18T17:29:17Z</time>
      </trkpt>
      <trkpt lat="60.11685079895" lon="21.524949045852">
        <ele>10.6</ele>
        <time>2013-07-18T17:29:26Z</time>
      </trkpt>
      <trkpt lat="60.116858342662" lon="21.525228666142">
        <ele>10.8</ele>
        <time>2013-07-18T17:29:30Z</time>
      </trkpt>
      <trkpt lat="60.116828083992" lon="21.525252051651">
        <ele>10.8</ele>
        <time>2013-07-18T17:29:31Z</time>
      </trkpt>
      <trkpt lat="60.116629265249" lon="21.525395633653">
        <ele>10.2</ele>
        <time>2013-07-18T17:29:35Z</time>
      </trkpt>
      <trkpt lat="60.116476463154" lon="21.525597888976">
        <ele>9.8</ele>
        <time>2013-07-18T17:29:39Z</time>
      </trkpt>
      <trkpt lat="60.116253839806" lon="21.525818584487">
        <ele>9</ele>
        <time>2013-07-18T17:29:44Z</time>
      </trkpt>
      <trkpt lat="60.116216959432" lon="21.525913635269">
        <ele>9</ele>
        <time>2013-07-18T17:29:47Z</time>
      </trkpt>
    </trkseg>
  </trk>
</gpx>